Time;durP1;ratioP1;P1;durP2;ratioP2;P2;SDS_P1;SDS_P2;PMS_P1;PMS_P2;Temp;Humidity;BMP_temperature;BMP_pressure;BME280_temperature;BME280_humidity;BME280_pressure;Samples;Min_cycle;Max_cycle;Signal;HPM_P1;HPM_P2
2023/05/14 00:02:24;;;;;;;4.72;3.45;;;;;;;13.80;47.53;94255.09;4928697;28;20041;-74
2023/05/14 00:04:49;;;;;;;4.95;3.60;;;;;;;13.95;47.93;94257.22;4926278;28;20134;-74
2023/05/14 00:07:15;;;;;;;6.28;3.25;;;;;;;14.08;47.71;94270.34;4931343;28;20559;-73
2023/05/14 00:09:41;;;;;;;5.15;3.53;;;;;;;14.12;48.19;94276.66;4928281;28;20050;-73
2023/05/14 00:12:06;;;;;;;6.18;3.40;;;;;;;14.21;48.13;94273.91;4927579;28;20043;-74
2023/05/14 00:14:32;;;;;;;5.97;3.35;;;;;;;14.27;47.88;94269.94;4929191;28;20066;-74
2023/05/14 00:16:58;;;;;;;7.88;3.72;;;;;;;14.32;48.09;94256.38;4930396;28;20047;-72
2023/05/14 00:19:24;;;;;;;5.35;3.03;;;;;;;14.40;48.06;94270.78;4925873;28;20946;-73
2023/05/14 00:21:49;;;;;;;6.35;3.85;;;;;;;14.40;48.98;94254.75;4928086;28;20043;-73
2023/05/14 00:24:14;;;;;;;4.03;3.15;;;;;;;14.18;49.44;94263.84;4927872;28;20509;-73
2023/05/14 00:26:40;;;;;;;6.00;3.15;;;;;;;14.32;50.08;94267.09;4927379;28;20046;-73
2023/05/14 00:29:05;;;;;;;7.38;3.55;;;;;;;14.38;49.85;94251.59;4926579;28;20562;-73
2023/05/14 00:31:30;;;;;;;4.97;3.22;;;;;;;14.23;48.99;94231.56;4937016;28;20035;-74
2023/05/14 00:33:56;;;;;;;4.85;3.53;;;;;;;14.22;48.92;94243.38;4926832;28;20071;-73
2023/05/14 00:36:21;;;;;;;4.95;3.63;;;;;;;14.08;49.64;94205.41;4923809;28;20582;-74
2023/05/14 00:38:47;;;;;;;7.95;3.38;;;;;;;14.25;49.69;94245.41;4924515;28;20123;-74
2023/05/14 00:41:12;;;;;;;6.68;3.78;;;;;;;14.42;48.45;94245.25;4927003;28;20126;-73
2023/05/14 00:43:37;;;;;;;4.75;4.20;;;;;;;14.25;49.92;94229.34;4925346;28;20421;-73
2023/05/14 00:46:03;;;;;;;3.85;3.55;;;;;;;14.21;48.77;94212.38;4926175;28;20530;-75
2023/05/14 00:48:28;;;;;;;8.40;3.13;;;;;;;14.22;48.11;94224.66;4927005;28;20031;-72
2023/05/14 00:50:54;;;;;;;6.65;3.85;;;;;;;13.83;48.78;94233.06;4927710;28;20062;-73
2023/05/14 00:53:20;;;;;;;5.13;3.42;;;;;;;13.77;48.18;94223.66;4924675;28;20588;-73
2023/05/14 00:55:48;;;;;;;8.55;3.65;;;;;;;13.87;47.75;94228.66;4928624;28;20337;-74
2023/05/14 00:58:13;;;;;;;6.07;4.10;;;;;;;13.86;48.19;94235.09;4924911;28;20051;-74
2023/05/14 01:00:40;;;;;;;5.68;3.47;;;;;;;14.01;46.86;94229.19;4927115;28;20039;-73
2023/05/14 01:03:06;;;;;;;5.15;3.13;;;;;;;13.60;46.36;94225.31;4927636;28;20087;-74
2023/05/14 01:05:50;;;;;;;5.10;3.15;;;;;;;12.00;48.98;94228.31;4943542;28;20552;-73
2023/05/14 01:08:35;;;;;;;6.10;3.85;;;;;;;11.28;51.13;94238.56;4929923;28;20051;-73
2023/05/14 01:11:10;;;;;;;6.50;3.55;;;;;;;11.11;52.12;94243.81;4928024;28;20040;-73
2023/05/14 01:13:54;;;;;;;8.18;3.90;;;;;;;10.88;52.96;94240.41;4945422;28;20031;-74
2023/05/14 01:16:22;;;;;;;4.78;3.72;;;;;;;10.55;53.90;94223.13;4927629;28;20055;-72
2023/05/14 01:18:51;;;;;;;4.03;3.40;;;;;;;10.47;54.84;94229.16;4919061;28;20043;-73
2023/05/14 01:21:36;;;;;;;4.45;4.05;;;;;;;10.61;54.93;94245.88;4934989;28;20047;-74
2023/05/14 01:24:03;;;;;;;6.25;4.28;;;;;;;10.57;54.96;94242.22;4926083;28;20207;-74
2023/05/14 01:26:30;;;;;;;5.50;4.20;;;;;;;10.36;55.23;94219.81;4928123;28;20027;-73
2023/05/14 01:29:01;;;;;;;13.55;4.57;;;;;;;10.50;54.80;94234.66;4919329;28;20047;-74
2023/05/14 01:31:31;;;;;;;6.63;3.92;;;;;;;10.61;54.51;94235.22;4923429;28;20036;-73
2023/05/14 01:33:58;;;;;;;8.50;3.92;;;;;;;10.88;54.05;94264.34;4924920;28;20463;-74
2023/05/14 01:36:24;;;;;;;8.48;3.67;;;;;;;11.08;53.45;94277.16;4923047;28;20047;-72
2023/05/14 01:38:50;;;;;;;5.05;3.78;;;;;;;11.26;52.38;94250.59;4927904;28;20027;-73
2023/05/14 01:41:18;;;;;;;4.50;3.28;;;;;;;11.47;51.79;94243.66;4929403;28;20044;-73
2023/05/14 01:43:44;;;;;;;4.70;3.90;;;;;;;12.01;51.68;94259.22;4921875;28;20530;-73
2023/05/14 01:46:10;;;;;;;3.53;3.03;;;;;;;12.27;49.51;94247.81;4926031;28;20493;-73
2023/05/14 01:48:36;;;;;;;4.20;3.13;;;;;;;12.15;50.15;94260.97;4915933;28;20866;-75
2023/05/14 01:51:03;;;;;;;5.18;3.13;;;;;;;12.61;49.74;94245.19;4924859;28;20063;-73
2023/05/14 01:53:28;;;;;;;4.68;2.85;;;;;;;12.69;48.19;94239.03;4933545;28;20106;-74
2023/05/14 01:55:53;;;;;;;4.95;3.67;;;;;;;13.02;49.24;94259.88;4925896;28;20035;-74
2023/05/14 01:58:19;;;;;;;3.90;2.92;;;;;;;13.14;48.99;94262.69;4913237;28;20669;-73
2023/05/14 02:00:44;;;;;;;5.13;2.80;;;;;;;13.32;49.19;94256.97;4918492;28;20043;-74
2023/05/14 02:03:09;;;;;;;5.65;2.92;;;;;;;13.45;48.88;94247.19;4922192;28;20433;-74
2023/05/14 02:05:35;;;;;;;3.45;3.15;;;;;;;13.48;48.48;94249.25;4918396;28;20416;-74
2023/05/14 02:08:00;;;;;;;5.88;2.63;;;;;;;13.57;48.19;94252.66;4898685;29;20028;-74
2023/05/14 02:10:26;;;;;;;7.53;3.42;;;;;;;13.62;47.92;94238.34;4904858;28;20079;-75
2023/05/14 02:12:51;;;;;;;7.72;3.42;;;;;;;13.61;48.36;94253.59;4899220;28;20051;-75
2023/05/14 02:15:16;;;;;;;5.47;3.10;;;;;;;13.03;49.13;94251.56;4905138;29;20530;-73
2023/05/14 02:17:42;;;;;;;3.83;2.95;;;;;;;13.42;48.71;94255.06;4901898;29;20027;-75
2023/05/14 02:20:09;;;;;;;5.13;3.03;;;;;;;13.53;47.98;94262.44;4901404;29;20548;-74
2023/05/14 02:22:34;;;;;;;7.85;2.88;;;;;;;13.60;47.77;94257.38;4910463;28;20169;-74
2023/05/14 02:25:00;;;;;;;4.22;3.03;;;;;;;13.64;47.84;94269.00;4921290;28;20511;-73
2023/05/14 02:27:25;;;;;;;4.03;2.92;;;;;;;13.23;49.33;94252.78;4904408;29;20416;-75
2023/05/14 02:29:51;;;;;;;6.45;3.05;;;;;;;13.41;48.60;94270.31;4899656;28;20744;-74
2023/05/14 02:32:17;;;;;;;3.83;2.92;;;;;;;13.41;48.15;94267.63;4908533;29;20031;-74
2023/05/14 02:34:42;;;;;;;4.15;3.40;;;;;;;13.33;48.37;94258.56;4893564;28;20251;-74
2023/05/14 02:37:07;;;;;;;3.38;3.08;;;;;;;13.27;47.37;94259.81;4897839;28;20733;-74
2023/05/14 02:39:33;;;;;;;5.15;2.88;;;;;;;13.15;48.39;94272.28;4901615;28;20078;-73
2023/05/14 02:41:58;;;;;;;4.85;2.88;;;;;;;13.24;47.68;94265.03;4894820;28;20048;-74
2023/05/14 02:44:24;;;;;;;2.63;2.30;;;;;;;13.05;49.27;94291.31;4901025;29;20391;-73
2023/05/14 02:46:49;;;;;;;3.70;3.22;;;;;;;12.72;49.28;94264.31;4905833;28;20036;-75
2023/05/14 02:49:16;;;;;;;7.93;2.97;;;;;;;13.28;49.16;94295.34;4897520;29;21447;-74
2023/05/14 02:51:41;;;;;;;4.38;3.03;;;;;;;13.17;48.49;94307.44;4910910;29;20036;-73
2023/05/14 02:54:09;;;;;;;5.97;2.78;;;;;;;13.42;48.49;94300.50;4909064;29;20078;-73
2023/05/14 02:56:34;;;;;;;3.08;2.33;;;;;;;13.43;47.86;94288.69;4907335;29;20115;-73
2023/05/14 02:58:59;;;;;;;6.07;2.88;;;;;;;13.25;48.72;94288.72;4896931;29;20039;-73
2023/05/14 03:01:25;;;;;;;4.07;3.40;;;;;;;13.00;49.21;94304.81;4895333;28;20046;-74
2023/05/14 03:03:50;;;;;;;4.05;3.53;;;;;;;13.43;48.13;94302.84;4906967;29;20471;-74
2023/05/14 03:06:16;;;;;;;3.95;2.70;;;;;;;13.51;48.34;94293.22;4909691;28;20642;-74
2023/05/14 03:08:41;;;;;;;5.97;2.92;;;;;;;13.65;48.65;94286.59;4911726;28;20040;-73
2023/05/14 03:11:06;;;;;;;4.70;3.20;;;;;;;13.43;48.41;94278.81;4899076;29;20024;-75
2023/05/14 03:13:32;;;;;;;4.25;2.88;;;;;;;12.65;50.31;94229.31;4909162;28;20040;-73
2023/05/14 03:15:57;;;;;;;5.07;3.22;;;;;;;12.30;51.12;94266.63;4921549;28;20040;-74
2023/05/14 03:18:22;;;;;;;3.42;2.97;;;;;;;12.46;50.69;94280.31;4910303;29;20043;-73
2023/05/14 03:20:48;;;;;;;4.30;3.17;;;;;;;12.39;50.93;94275.44;4910029;29;20524;-73
2023/05/14 03:23:14;;;;;;;4.55;3.25;;;;;;;12.85;52.28;94264.16;4921591;28;20032;-73
2023/05/14 03:25:39;;;;;;;3.60;3.03;;;;;;;12.53;52.64;94275.28;4911135;29;20067;-74
2023/05/14 03:28:05;;;;;;;3.78;3.42;;;;;;;12.83;52.14;94270.91;4909560;28;20036;-74
2023/05/14 03:30:31;;;;;;;5.57;3.25;;;;;;;12.99;52.61;94274.66;4912167;28;20067;-72
2023/05/14 03:32:56;;;;;;;7.05;3.95;;;;;;;13.09;52.50;94271.66;4900657;29;21034;-73
2023/05/14 03:35:22;;;;;;;5.72;3.55;;;;;;;13.02;51.94;94251.88;4916366;28;20150;-74
2023/05/14 03:37:47;;;;;;;3.90;3.50;;;;;;;11.79;55.10;94271.84;4904262;29;20507;-74
2023/05/14 03:40:13;;;;;;;5.57;3.28;;;;;;;10.44;60.57;94251.03;4897989;29;20438;-74
2023/05/14 03:42:38;;;;;;;3.80;3.40;;;;;;;10.03;64.67;94291.75;4904464;29;20046;-74
2023/05/14 03:45:04;;;;;;;8.35;4.22;;;;;;;10.26;65.06;94288.09;4897300;29;20095;-75
2023/05/14 03:47:29;;;;;;;5.07;4.20;;;;;;;10.70;63.04;94286.59;4900751;29;20495;-75
2023/05/14 03:49:55;;;;;;;4.03;3.72;;;;;;;11.25;61.36;94281.78;4899163;28;20040;-75
2023/05/14 03:52:21;;;;;;;4.45;3.50;;;;;;;11.77;59.27;94277.50;4908509;29;20046;-71
2023/05/14 03:54:46;;;;;;;4.65;3.67;;;;;;;12.26;57.42;94286.25;4892320;28;20039;-74
2023/05/14 03:57:11;;;;;;;4.72;3.92;;;;;;;12.48;56.44;94278.09;4903176;29;20509;-73
2023/05/14 03:59:37;;;;;;;4.95;4.18;;;;;;;12.63;55.60;94283.00;4904991;28;20062;-74
2023/05/14 04:02:02;;;;;;;5.13;3.80;;;;;;;12.63;55.59;94282.22;4909485;29;20027;-74
2023/05/14 04:04:28;;;;;;;4.10;3.60;;;;;;;12.79;54.61;94270.75;4912878;29;20550;-72
2023/05/14 04:06:53;;;;;;;4.50;3.40;;;;;;;12.87;54.75;94277.97;4907039;28;20032;-73
2023/05/14 04:09:18;;;;;;;4.80;3.95;;;;;;;13.02;54.03;94286.56;4899608;28;20683;-74
2023/05/14 04:11:44;;;;;;;4.93;3.55;;;;;;;12.93;54.44;94273.25;4905175;29;20031;-74
2023/05/14 04:14:09;;;;;;;4.05;3.65;;;;;;;13.09;53.87;94289.56;4900473;29;20031;-73
2023/05/14 04:16:34;;;;;;;4.60;3.28;;;;;;;13.10;53.47;94293.81;4894796;29;20062;-74
2023/05/14 04:19:05;;;;;;;6.20;2.92;;;;;;;12.77;54.13;94283.63;4909893;28;20042;-73
2023/05/14 04:21:31;;;;;;;6.35;3.92;;;;;;;13.12;53.74;94299.59;4902392;29;20127;-73
2023/05/14 04:23:56;;;;;;;4.05;3.30;;;;;;;13.00;53.28;94268.22;4907872;28;20043;-74
2023/05/14 04:26:21;;;;;;;4.85;3.30;;;;;;;12.56;53.54;94306.69;4902690;29;20382;-74
2023/05/14 04:28:47;;;;;;;6.10;3.25;;;;;;;12.91;53.62;94304.03;4910647;29;20083;-73
2023/05/14 04:31:12;;;;;;;4.30;3.33;;;;;;;13.24;53.22;94313.91;4906153;28;20422;-75
2023/05/14 04:33:38;;;;;;;5.40;3.25;;;;;;;13.16;53.31;94297.88;4898781;28;20168;-74
2023/05/14 04:36:04;;;;;;;3.75;3.05;;;;;;;13.27;52.79;94320.47;4909806;29;20050;-73
2023/05/14 04:38:30;;;;;;;5.03;3.45;;;;;;;13.27;54.06;94328.50;4893749;29;20961;-73
2023/05/14 04:40:56;;;;;;;7.93;3.50;;;;;;;13.26;54.57;94330.38;4906708;29;20586;-73
2023/05/14 04:43:22;;;;;;;8.75;4.22;;;;;;;13.30;53.84;94328.63;4901450;29;20739;-74
2023/05/14 04:45:48;;;;;;;4.53;3.42;;;;;;;13.28;54.62;94340.75;4899145;28;20084;-74
2023/05/14 04:48:13;;;;;;;7.00;3.70;;;;;;;13.24;56.17;94323.78;4904495;28;20062;-73
2023/05/14 04:50:38;;;;;;;6.32;3.80;;;;;;;13.12;57.10;94347.66;4921809;28;20505;-74
2023/05/14 04:53:04;;;;;;;4.80;3.67;;;;;;;13.12;57.75;94340.44;4902609;29;20034;-74
2023/05/14 04:55:29;;;;;;;7.47;3.08;;;;;;;12.38;57.59;94353.88;4909882;29;20043;-73
2023/05/14 04:57:55;;;;;;;5.40;3.10;;;;;;;12.27;56.82;94343.81;4902532;29;20723;-74
2023/05/14 05:00:20;;;;;;;5.32;3.55;;;;;;;12.71;58.77;94353.50;4895681;28;20154;-73
2023/05/14 05:02:46;;;;;;;4.68;3.08;;;;;;;12.71;58.42;94327.56;4900698;29;20821;-73
2023/05/14 05:05:12;;;;;;;3.85;3.45;;;;;;;13.14;58.82;94375.66;4907627;29;20166;-75
2023/05/14 05:07:37;;;;;;;7.75;3.78;;;;;;;12.93;59.40;94371.25;4904178;28;20554;-74
2023/05/14 05:10:03;;;;;;;4.03;3.47;;;;;;;12.98;59.21;94368.41;4920327;28;20033;-74
2023/05/14 05:12:29;;;;;;;5.95;4.05;;;;;;;12.71;60.59;94375.59;4911432;29;20052;-74
2023/05/14 05:15:00;;;;;;;5.72;4.95;;;;;;;12.73;60.92;94389.44;4900357;29;20596;-74
2023/05/14 05:17:25;;;;;;;5.90;4.97;;;;;;;12.69;62.31;94377.81;4909912;29;20035;-74
2023/05/14 05:19:51;;;;;;;7.13;5.25;;;;;;;12.84;61.64;94388.03;4909870;28;20048;-74
2023/05/14 05:22:18;;;;;;;6.22;4.60;;;;;;;12.59;62.55;94350.66;4900270;29;20126;-74
2023/05/14 05:24:43;;;;;;;9.63;5.78;;;;;;;12.91;62.94;94400.16;4913287;29;20044;-74
2023/05/14 05:27:09;;;;;;;10.00;5.32;;;;;;;12.91;62.79;94402.81;4939199;28;20523;-73
2023/05/14 05:29:35;;;;;;;7.50;5.60;;;;;;;12.97;63.05;94393.53;4908614;29;20491;-74
2023/05/14 05:32:01;;;;;;;8.00;5.45;;;;;;;12.97;63.16;94391.66;4901361;29;20305;-74
2023/05/14 05:34:26;;;;;;;8.07;5.32;;;;;;;13.03;62.71;94405.63;4901198;28;20182;-72
2023/05/14 05:36:51;;;;;;;7.00;5.20;;;;;;;13.04;61.63;94410.69;4902615;29;20127;-75
2023/05/14 05:39:17;;;;;;;8.10;5.55;;;;;;;13.09;61.90;94396.38;4900185;29;20075;-73
2023/05/14 05:41:43;;;;;;;5.90;5.28;;;;;;;12.54;62.97;94364.09;4911686;28;20392;-73
2023/05/14 05:44:08;;;;;;;6.53;4.60;;;;;;;12.74;62.18;94404.38;4890278;29;20036;-72
2023/05/14 05:46:34;;;;;;;6.45;4.65;;;;;;;12.88;62.21;94397.00;4907606;29;21925;-74
2023/05/14 05:48:59;;;;;;;5.30;4.30;;;;;;;12.65;61.88;94408.91;4903151;28;20036;-73
2023/05/14 05:51:25;;;;;;;7.60;4.82;;;;;;;12.89;62.82;94401.25;4900198;29;20461;-74
2023/05/14 05:53:50;;;;;;;7.47;5.32;;;;;;;13.16;62.59;94415.38;4908601;29;20670;-75
2023/05/14 05:56:15;;;;;;;7.53;4.30;;;;;;;13.41;59.78;94408.44;4915338;28;20036;-74
2023/05/14 05:58:41;;;;;;;6.38;4.03;;;;;;;13.60;56.91;94404.38;4899747;28;20232;-74
2023/05/14 06:01:06;;;;;;;7.97;4.45;;;;;;;13.23;59.46;94397.00;4906088;28;20507;-73
2023/05/14 06:03:32;;;;;;;7.88;5.00;;;;;;;13.02;61.58;94402.19;4908168;29;20040;-73
2023/05/14 06:05:57;;;;;;;7.55;5.18;;;;;;;12.81;62.68;94391.31;4901880;29;20040;-74
2023/05/14 06:08:23;;;;;;;9.60;5.38;;;;;;;12.99;61.95;94396.69;4906663;28;20447;-74
2023/05/14 06:10:48;;;;;;;11.35;5.45;;;;;;;13.10;61.88;94392.63;4906783;28;20391;-74
2023/05/14 06:13:13;;;;;;;7.28;5.43;;;;;;;12.63;64.88;94397.75;4917599;28;20044;-73
2023/05/14 06:15:39;;;;;;;7.30;5.00;;;;;;;12.62;64.97;94409.50;4925429;28;20044;-73
2023/05/14 06:18:04;;;;;;;6.88;5.90;;;;;;;12.30;66.13;94412.53;4904594;29;20573;-73
2023/05/14 06:20:29;;;;;;;7.97;5.07;;;;;;;11.06;69.37;94404.44;4905505;29;20899;-72
2023/05/14 06:22:55;;;;;;;8.43;6.03;;;;;;;10.81;71.08;94398.91;4906842;28;20058;-73
2023/05/14 06:25:20;;;;;;;6.90;5.28;;;;;;;10.78;71.14;94400.28;4903662;28;20036;-73
2023/05/14 06:27:46;;;;;;;6.82;5.72;;;;;;;10.54;72.29;94394.41;4905610;29;20040;-73
2023/05/14 06:30:12;;;;;;;9.40;5.63;;;;;;;11.35;68.44;94403.22;4895536;29;20686;-72
2023/05/14 06:32:37;;;;;;;7.65;5.93;;;;;;;11.34;68.80;94412.31;4937900;28;20843;-73
2023/05/14 06:35:04;;;;;;;9.43;5.47;;;;;;;11.32;68.18;94419.81;4895270;29;20771;-73
2023/05/14 06:37:29;;;;;;;7.88;5.53;;;;;;;10.71;69.40;94399.88;4903412;28;20047;-73
2023/05/14 06:39:54;;;;;;;8.60;5.93;;;;;;;10.83;70.33;94394.84;4895160;28;20546;-73
2023/05/14 06:42:20;;;;;;;7.38;5.93;;;;;;;10.45;70.08;94406.84;4904370;29;20043;-73
2023/05/14 06:44:45;;;;;;;7.65;5.60;;;;;;;10.97;69.18;94398.25;4909807;29;20836;-74
2023/05/14 06:47:11;;;;;;;7.82;5.85;;;;;;;10.94;68.62;94424.69;4919420;28;20083;-74
2023/05/14 06:49:37;;;;;;;7.05;5.38;;;;;;;10.59;70.01;94370.38;4908334;29;20346;-73
2023/05/14 06:52:03;;;;;;;6.82;5.70;;;;;;;10.08;71.55;94382.00;4905483;28;20058;-74
2023/05/14 06:54:29;;;;;;;8.18;6.88;;;;;;;9.86;74.11;94384.56;4903878;29;20035;-73
2023/05/14 06:56:55;;;;;;;8.68;6.18;;;;;;;9.65;75.02;94393.97;4897633;28;20083;-75
2023/05/14 06:59:20;;;;;;;9.07;6.15;;;;;;;9.15;76.58;94375.16;4915521;28;20051;-73
2023/05/14 07:01:46;;;;;;;10.43;6.78;;;;;;;9.23;77.19;94387.00;4907151;28;20280;-74
2023/05/14 07:04:11;;;;;;;7.13;6.13;;;;;;;9.42;76.87;94395.72;4903653;29;20163;-75
2023/05/14 07:06:37;;;;;;;8.07;6.55;;;;;;;9.56;77.11;94393.09;4896280;28;20044;-73
2023/05/14 07:09:02;;;;;;;8.57;7.05;;;;;;;9.32;76.88;94391.34;4904674;29;20376;-74
2023/05/14 07:11:28;;;;;;;9.40;7.53;;;;;;;9.31;77.86;94388.97;4894692;29;20042;-72
2023/05/14 07:13:53;;;;;;;9.32;6.72;;;;;;;9.29;76.47;94383.97;4902328;28;20095;-73
2023/05/14 07:16:19;;;;;;;8.75;7.00;;;;;;;9.25;78.08;94419.34;4905084;28;20070;-74
2023/05/14 07:18:44;;;;;;;10.82;6.43;;;;;;;9.67;76.87;94440.44;4895498;29;20502;-73
2023/05/14 07:21:11;;;;;;;8.75;6.20;;;;;;;9.60;74.43;94444.53;4901897;29;20039;-74
2023/05/14 07:23:37;;;;;;;8.68;6.13;;;;;;;9.41;74.75;94437.41;4898316;29;20031;-73
2023/05/14 07:26:05;;;;;;;7.68;5.88;;;;;;;9.55;74.28;94426.03;4895141;29;20730;-74
2023/05/14 07:28:31;;;;;;;10.68;6.68;;;;;;;9.69;74.52;94432.94;4892279;28;20040;-72
2023/05/14 07:30:57;;;;;;;7.50;5.30;;;;;;;9.78;74.03;94411.84;4883124;28;20103;-72
2023/05/14 07:33:23;;;;;;;7.97;6.45;;;;;;;9.70;74.40;94397.34;4888841;29;20547;-75
2023/05/14 07:35:49;;;;;;;8.45;5.95;;;;;;;10.09;73.48;94423.47;4892832;28;20988;-73
2023/05/14 07:38:15;;;;;;;6.22;5.15;;;;;;;10.63;70.96;94419.22;4886871;28;20058;-74
2023/05/14 07:40:40;;;;;;;10.75;6.30;;;;;;;10.94;69.21;94417.50;4881044;28;20077;-74
2023/05/14 07:43:06;;;;;;;6.78;5.97;;;;;;;10.71;68.97;94421.19;4890525;29;20048;-73
2023/05/14 07:45:31;;;;;;;6.80;5.55;;;;;;;10.42;70.77;94413.53;4906238;29;20032;-73
2023/05/14 07:47:56;;;;;;;9.27;6.05;;;;;;;10.94;69.67;94432.66;4881037;28;20052;-73
2023/05/14 07:50:22;;;;;;;10.60;6.43;;;;;;;10.36;70.79;94419.25;4905852;28;20303;-73
2023/05/14 07:52:47;;;;;;;10.50;6.13;;;;;;;10.24;72.06;94439.13;4897911;28;20136;-74
2023/05/14 07:55:13;;;;;;;10.18;6.07;;;;;;;10.47;70.99;94426.72;4886430;28;20048;-72
2023/05/14 07:57:38;;;;;;;8.70;5.70;;;;;;;10.27;72.64;94432.41;4903473;28;20510;-72
2023/05/14 08:00:08;;;;;;;12.90;7.95;;;;;;;9.92;72.63;94428.56;4911626;29;20047;-76
2023/05/14 08:02:34;;;;;;;11.15;6.88;;;;;;;10.11;73.38;94433.81;4919055;28;20425;-74
2023/05/14 08:05:00;;;;;;;12.10;6.72;;;;;;;9.77;74.90;94428.84;4905769;29;20815;-74
2023/05/14 08:07:28;;;;;;;11.18;7.35;;;;;;;10.18;73.64;94434.97;4892411;29;20655;-73
2023/05/14 08:09:53;;;;;;;10.60;7.15;;;;;;;10.78;72.30;94444.72;4905909;28;20040;-74
2023/05/14 08:12:19;;;;;;;7.68;6.53;;;;;;;10.04;72.89;94423.56;4898386;28;20122;-74
2023/05/14 08:14:45;;;;;;;11.95;6.45;;;;;;;9.47;75.39;94414.22;4893607;28;20064;-73
2023/05/14 08:17:10;;;;;;;16.20;7.05;;;;;;;9.01;78.40;94409.59;4884541;29;20043;-72
2023/05/14 08:19:35;;;;;;;11.40;7.88;;;;;;;9.11;78.89;94411.31;4911165;28;20039;-74
2023/05/14 08:22:01;;;;;;;8.95;7.07;;;;;;;8.96;78.99;94387.66;4887413;29;20044;-75
2023/05/14 08:24:26;;;;;;;7.78;6.97;;;;;;;9.28;78.42;94400.19;4893026;28;20078;-72
2023/05/14 08:26:52;;;;;;;13.43;7.32;;;;;;;9.19;79.40;94409.91;4894274;29;20435;-75
2023/05/14 08:29:17;;;;;;;12.13;7.47;;;;;;;8.91;79.92;94411.59;4889619;28;20023;-75
2023/05/14 08:31:43;;;;;;;8.90;7.22;;;;;;;8.25;82.11;94407.19;4900943;29;20114;-75
2023/05/14 08:34:08;;;;;;;11.35;8.23;;;;;;;8.55;82.06;94422.72;4894753;29;20780;-74
2023/05/14 08:36:33;;;;;;;11.15;7.72;;;;;;;8.83;81.69;94404.28;4899841;28;21397;-73
2023/05/14 08:38:59;;;;;;;11.57;7.15;;;;;;;8.82;80.71;94397.41;4902745;28;20236;-73
2023/05/14 08:41:24;;;;;;;8.80;7.50;;;;;;;8.10;82.53;94347.22;4895194;29;20058;-73
2023/05/14 08:44:01;;;;;;;7.78;6.75;;;;;;;9.10;82.38;94406.28;4894917;29;21023;-74
2023/05/14 08:46:29;;;;;;;12.27;7.78;;;;;;;8.96;82.37;94380.47;4906853;29;20054;-74
2023/05/14 08:48:59;;;;;;;10.88;7.40;;;;;;;9.34;80.59;94375.91;4904422;29;20175;-72
2023/05/14 08:51:26;;;;;;;8.05;7.18;;;;;;;9.85;78.92;94401.59;4904661;28;20067;-74
2023/05/14 08:53:52;;;;;;;10.38;7.45;;;;;;;9.88;78.31;94403.66;4902719;28;20037;-75
2023/05/14 08:56:18;;;;;;;8.23;7.13;;;;;;;9.65;77.57;94388.66;4906912;28;20019;-74
2023/05/14 08:58:44;;;;;;;9.05;7.32;;;;;;;9.67;77.57;94400.59;4903343;29;20567;-74
2023/05/14 09:01:09;;;;;;;8.23;6.75;;;;;;;9.53;76.89;94391.03;4915346;28;20043;-75
2023/05/14 09:03:37;;;;;;;6.80;6.07;;;;;;;9.53;77.35;94396.34;4910904;28;20039;-73
2023/05/14 09:06:04;;;;;;;9.63;7.25;;;;;;;9.62;77.80;94400.69;4911299;28;20044;-74
2023/05/14 09:08:30;;;;;;;8.77;7.10;;;;;;;9.06;78.89;94382.19;4904765;29;20032;-73
2023/05/14 09:10:55;;;;;;;8.07;6.55;;;;;;;9.30;78.61;94393.50;4911782;29;20050;-72
2023/05/14 09:13:21;;;;;;;9.02;7.65;;;;;;;9.04;79.33;94387.00;4910027;28;20139;-74
2023/05/14 09:15:47;;;;;;;11.55;7.13;;;;;;;8.92;80.68;94370.72;4904121;29;20075;-73
2023/05/14 09:18:13;;;;;;;8.13;7.28;;;;;;;8.72;80.79;94385.09;4910605;29;20570;-72
2023/05/14 09:20:38;;;;;;;9.60;8.60;;;;;;;8.73;80.80;94383.22;4903457;28;20035;-72
2023/05/14 09:23:04;;;;;;;9.15;7.50;;;;;;;9.01;81.12;94409.59;4908328;29;20043;-75
2023/05/14 09:25:32;;;;;;;9.13;7.60;;;;;;;9.65;78.60;94399.28;4909775;28;20039;-73
2023/05/14 09:27:58;;;;;;;10.82;7.47;;;;;;;9.76;77.72;94393.53;4919990;28;20122;-74
2023/05/14 09:30:25;;;;;;;8.45;6.55;;;;;;;9.78;77.81;94386.03;4906409;29;20341;-74
2023/05/14 09:32:53;;;;;;;10.98;7.43;;;;;;;9.94;77.64;94362.63;4907382;28;20479;-74
2023/05/14 09:35:24;;;;;;;7.45;6.57;;;;;;;9.20;78.80;94384.91;4912501;29;20032;-73
2023/05/14 09:37:53;;;;;;;9.30;6.25;;;;;;;9.62;78.27;94387.41;4909079;28;20028;-73
2023/05/14 09:40:20;;;;;;;10.35;6.75;;;;;;;9.83;77.41;94387.81;4917572;28;20047;-75
2023/05/14 09:42:49;;;;;;;8.15;7.35;;;;;;;9.51;78.33;94378.03;4928294;28;20067;-72
2023/05/14 09:45:16;;;;;;;8.88;6.70;;;;;;;9.40;78.02;94360.69;4914460;28;20089;-74
2023/05/14 09:47:41;;;;;;;7.50;6.68;;;;;;;9.30;77.81;94342.28;4922728;28;20277;-73
2023/05/14 09:50:08;;;;;;;11.25;5.85;;;;;;;9.67;77.85;94355.44;4926164;28;20091;-74
2023/05/14 09:52:34;;;;;;;11.02;7.00;;;;;;;9.60;77.50;94364.84;4926572;28;20109;-73
2023/05/14 09:55:00;;;;;;;7.80;6.28;;;;;;;9.47;78.43;94362.97;4925068;28;20498;-74
2023/05/14 09:57:26;;;;;;;6.60;5.95;;;;;;;9.70;77.42;94359.38;4923507;28;20047;-74
2023/05/14 09:59:52;;;;;;;6.82;6.18;;;;;;;9.10;78.41;94361.16;4935799;28;20042;-74
2023/05/14 10:02:22;;;;;;;7.72;7.03;;;;;;;9.32;79.24;94364.81;4917335;28;20720;-75
2023/05/14 10:04:50;;;;;;;8.73;6.45;;;;;;;9.53;77.35;94316.69;4923599;28;20058;-74
2023/05/14 10:07:20;;;;;;;7.38;6.65;;;;;;;9.44;78.35;94351.84;4912582;28;20074;-74
2023/05/14 10:09:46;;;;;;;7.35;6.20;;;;;;;9.37;78.18;94340.84;4926364;28;20094;-73
2023/05/14 10:12:15;;;;;;;7.30;6.60;;;;;;;9.63;77.99;94343.03;4927335;28;20464;-74
2023/05/14 10:14:48;;;;;;;7.50;6.78;;;;;;;9.77;77.41;94335.88;4916112;28;20082;-75
2023/05/14 10:17:17;;;;;;;8.95;7.38;;;;;;;9.81;77.31;94327.00;4940803;28;20031;-73
2023/05/14 10:19:51;;;;;;;10.70;7.78;;;;;;;9.99;77.06;94314.69;4917177;28;20043;-75
2023/05/14 10:22:21;;;;;;;8.95;6.88;;;;;;;9.55;78.04;94330.44;4920849;28;20035;-74
2023/05/14 10:24:49;;;;;;;7.70;6.90;;;;;;;9.48;78.20;94319.41;4920689;28;20050;-73
2023/05/14 10:27:16;;;;;;;6.80;6.10;;;;;;;10.08;76.95;94323.53;4932726;28;20461;-73
2023/05/14 10:29:52;;;;;;;7.72;5.65;;;;;;;10.43;75.00;94340.66;4918216;28;21092;-74
2023/05/14 10:32:19;;;;;;;6.43;5.82;;;;;;;10.00;75.70;94326.13;4921023;28;20024;-74
2023/05/14 10:34:45;;;;;;;7.60;5.95;;;;;;;10.37;75.43;94351.72;4925489;28;20126;-74
2023/05/14 10:37:16;;;;;;;6.00;5.38;;;;;;;10.00;74.54;94326.91;4915109;28;20069;-74
2023/05/14 10:39:52;;;;;;;6.63;5.90;;;;;;;9.68;77.47;94329.66;4917436;28;20122;-73
2023/05/14 10:42:39;;;;;;;6.18;5.57;;;;;;;10.31;75.37;94333.19;4916509;28;20136;-74
2023/05/14 10:45:07;;;;;;;5.85;5.25;;;;;;;10.48;73.91;94337.09;4940622;28;20086;-74
2023/05/14 10:47:37;;;;;;;6.63;4.88;;;;;;;10.80;72.80;94318.28;4941565;28;20423;-74
2023/05/14 10:50:05;;;;;;;6.95;6.28;;;;;;;10.32;74.98;94299.38;4925449;28;20583;-75
2023/05/14 10:52:32;;;;;;;6.78;6.07;;;;;;;10.39;76.48;94317.63;4925757;28;20347;-74
2023/05/14 10:55:01;;;;;;;7.20;5.45;;;;;;;10.76;74.47;94327.94;4940998;28;20039;-74
2023/05/14 10:57:30;;;;;;;5.78;5.18;;;;;;;11.25;72.65;94334.25;4921691;28;20047;-74
2023/05/14 10:59:57;;;;;;;7.05;6.35;;;;;;;10.18;76.12;94291.44;4924222;28;20175;-76
2023/05/14 11:02:31;;;;;;;11.30;6.68;;;;;;;10.44;77.97;94298.91;4923197;28;21146;-75
2023/05/14 11:04:58;;;;;;;7.60;6.90;;;;;;;10.12;78.75;94308.56;4925131;28;20147;-74
2023/05/14 11:07:28;;;;;;;8.38;7.03;;;;;;;10.38;77.29;94327.47;4918035;28;20527;-74
2023/05/14 11:09:59;;;;;;;8.85;5.63;;;;;;;10.66;74.73;94322.88;4922357;28;20538;-74
2023/05/14 11:12:26;;;;;;;7.93;5.57;;;;;;;11.06;73.50;94323.78;4915719;28;20264;-75
2023/05/14 11:14:52;;;;;;;7.28;6.43;;;;;;;11.13;73.13;94316.16;4912762;28;20062;-72
2023/05/14 11:17:18;;;;;;;8.30;6.28;;;;;;;11.21;73.23;94319.97;4914692;28;20032;-73
2023/05/14 11:19:44;;;;;;;7.10;6.40;;;;;;;11.40;72.96;94331.97;4914667;28;21124;-74
2023/05/14 11:22:12;;;;;;;7.80;6.80;;;;;;;11.35;72.73;94339.31;4914205;28;20047;-74
2023/05/14 11:24:39;;;;;;;6.65;5.93;;;;;;;11.29;72.52;94330.69;4917174;28;20055;-75
2023/05/14 11:27:07;;;;;;;8.95;6.45;;;;;;;11.42;72.17;94313.03;4919148;28;20565;-74
2023/05/14 11:29:32;;;;;;;5.80;5.20;;;;;;;11.81;71.14;94318.41;4916886;28;20643;-73
2023/05/14 11:31:57;;;;;;;5.68;5.18;;;;;;;11.03;72.16;94305.78;4917333;28;20043;-75